Padre Island — WDB4436 — position and weather

sailwx.info

Track history (hours):
 
Tides and Currents Weather Stations Pressure Air Temp Water Temp Dewpoint Dewpoint Depression Visibility Wind Speed Wind Dir Waves Ship Positions

Padre Island

Owner: Great Lakes Dredge & Dock Company, Oak Brook, IL. More information available from US FCC via Universal Licensing System and Coast Guard Vessel Documentation Center.

Last reported at 2016-Aug-29 08:33 UTC. Time now 2016-Aug-29 08:59 UTC.
Position N 39°36' W 074°10'.

Length 86 m; draft 19.6 m.

Type: Dredging. MMSI: 367525000.

Date/timePositionNaut miles runAvg speedWind from/ knotsBaromVisibWave heightAir tempDewpointWater temp
2016-Aug-29 08:33N 39°36' W 074°10'2 2.5
2016-Aug-29 07:33N 39°34' W 074°13'3 3.0
2016-Aug-29 06:33N 39°36' W 074°10'6 6.2
2016-Aug-29 05:33N 39°40' W 074°04'2 2.2
2016-Aug-29 04:34N 39°39' W 074°06'7 7.0
2016-Aug-29 03:33N 39°34' W 074°13'1 0.6
2016-Aug-29 02:33N 39°35' W 074°13'2 1.8
2016-Aug-29 01:34N 39°36' W 074°11'7 6.7
2016-Aug-29 00:33N 39°40' W 074°04'5 4.8
2016-Aug-28 23:33N 39°37' W 074°09'4 4.3
2016-Aug-28 22:34N 39°34' W 074°13'4 4.1
2016-Aug-28 21:33N 39°36' W 074°09'5 5.0
2016-Aug-28 20:33N 39°40' W 074°04'5 5.2
2016-Aug-28 19:34N 39°37' W 074°09'4 3.8
2016-Aug-28 18:33N 39°34' W 074°13'1 1.0
2016-Aug-28 17:32N 39°35' W 074°12'8 8.5
2016-Aug-28 16:34N 39°40' W 074°04'1 0.5
2016-Aug-28 15:33N 39°40' W 074°05'9 8.7
2016-Aug-28 14:33N 39°34' W 074°13'1 0.6
2016-Aug-28 13:33N 39°35' W 074°13'9 8.7
2016-Aug-28 12:34N 39°40' W 074°04'3 3.3
2016-Aug-28 11:33N 39°38' W 074°07'6 6.0
2016-Aug-28 10:34N 39°34' W 074°13'4 3.5
2016-Aug-28 09:33N 39°36' W 074°09'6 5.9
2016-Aug-28 08:34N 39°40' W 074°04'3 2.8
2016-Aug-28 07:33N 39°38' W 074°06'7 6.6
2016-Aug-28 06:33N 39°34' W 074°13'0 0.2
2016-Aug-28 05:33N 39°34' W 074°13'8 8.2
2016-Aug-28 04:34N 39°40' W 074°05'0 0.4
2016-Aug-28 03:34N 39°40' W 074°04'9 8.8
2016-Aug-28 02:33N 39°34' W 074°13'0 0.1
2016-Aug-28 01:33N 39°34' W 074°13'8 7.8
2016-Aug-28 00:34N 39°39' W 074°05'1 0.8
2016-Aug-27 23:34N 39°40' W 074°05'8 8.3
2016-Aug-27 22:33N 39°34' W 074°13'1 0.9
2016-Aug-27 21:34N 39°35' W 074°12'9 8.6
2016-Aug-27 20:34N 39°40' W 074°04'1 0.8
2016-Aug-27 19:34N 39°40' W 074°05'9 8.6
2016-Aug-27 18:33N 39°34' W 074°13'0 0.0
2016-Aug-27 17:32N 39°34' W 074°13'8 8.4
2016-Aug-27 16:34N 39°39' W 074°05'1 0.7
2016-Aug-27 15:33N 39°40' W 074°05'9 8.7
2016-Aug-27 14:33N 39°34' W 074°13'0 0.4
2016-Aug-27 13:33N 39°34' W 074°13'9 9.4
2016-Aug-27 12:33N 39°40' W 074°03'0 0.2
2016-Aug-27 11:34N 39°41' W 074°03'10 9.8
2016-Aug-27 10:34N 39°34' W 074°13'0 0.3
2016-Aug-27 09:34N 39°34' W 074°13'9 8.6
2016-Aug-27 08:34N 39°40' W 074°04'0 0.2
2016-Aug-27 07:33N 39°40' W 074°04'9 8.8
2016-Aug-27 06:33N 39°34' W 074°13'7 3.5
2016-Aug-27 04:33N 39°39' W 074°06'2 2.5
2016-Aug-27 03:33N 39°40' W 074°04'5 5.2
2016-Aug-27 02:33N 39°37' W 074°09'4 4.3
2016-Aug-27 01:33N 39°34' W 074°13'4 4.5
2016-Aug-27 00:33N 39°37' W 074°08'5 5.1
2016-Aug-26 23:34N 39°41' W 074°04'6 5.7
2016-Aug-26 22:33N 39°37' W 074°09'4 3.6
2016-Aug-26 21:29N 39°34' W 074°13'5 4.9
2016-Aug-26 20:34N 39°37' W 074°08'4 4.4
2016-Aug-26 19:33N 39°40' W 074°04'4 4.1
2016-Aug-26 18:34N 39°37' W 074°08'5 4.8
2016-Aug-26 17:33N 39°34' W 074°13'4 3.7
2016-Aug-26 16:33N 39°37' W 074°09'6 6.1
2016-Aug-26 15:33N 39°41' W 074°03'3 2.8
2016-Aug-26 14:33N 39°39' W 074°06'7 7.0
2016-Aug-26 13:33N 39°34' W 074°13'0 0.0
2016-Aug-26 12:33N 39°34' W 074°13'0 0.0
2016-Aug-26 11:33N 39°34' W 074°13'3 2.9
2016-Aug-26 10:32N 39°36' W 074°10'7 6.9
2016-Aug-26 09:33N 39°41' W 074°03'2 1.9
2016-Aug-26 08:33N 39°39' W 074°05'8 7.4
2016-Aug-26 07:30N 39°34' W 074°13'0 0.5
2016-Aug-26 06:34N 39°35' W 074°12'9 4.2
2016-Aug-26 04:32N 39°40' W 074°04'9 8.9
2016-Aug-26 03:33N 39°34' W 074°13'0 0.2
2016-Aug-26 02:33N 39°34' W 074°13'8 8.2
2016-Aug-26 01:32N 39°40' W 074°05'1 1.5
2016-Aug-26 00:33N 39°41' W 074°03'9 8.9
2016-Aug-25 23:33N 39°50' W 074°02'30 8.9
2016-Aug-25 20:11N 40°19' W 073°55'6 9.1
2016-Aug-25 19:31N 40°25' W 073°55'9 1.3
2016-Aug-25 12:09N 40°29' W 074°07'4 1.6
2016-Aug-25 09:33N 40°29' W 074°01'29 9.3
2016-Aug-25 06:28N 40°00' W 073°59'2010.6
2016-Aug-25 04:33N 39°40' W 074°06'8 8.2
2016-Aug-25 03:33N 39°34' W 074°13'2 1.7
2016-Aug-25 02:33N 39°35' W 074°11'8 7.9
2016-Aug-25 01:33N 39°41' W 074°04'1 1.0
2016-Aug-25 00:33N 39°40' W 074°04'9 8.4
2016-Aug-24 23:31N 39°34' W 074°13'0 0.0
2016-Aug-24 22:33N 39°34' W 074°13'0 0.0
2016-Aug-24 21:33N 39°34' W 074°13'0 0.0
2016-Aug-24 20:33N 39°34' W 074°13'0 0.0
2016-Aug-24 19:32N 39°34' W 074°13'0 0.5
2016-Aug-24 18:33N 39°35' W 074°13'0 0.3
2016-Aug-24 17:32N 39°34' W 074°13'6 5.6
2016-Aug-24 16:33N 39°38' W 074°07'4 3.8
2016-Aug-24 15:33N 39°41' W 074°04'4 3.7
2016-Aug-24 14:33N 39°44' W 074°07'0 0.2
2016-Aug-24 13:33N 39°44' W 074°07'4 3.8
2016-Aug-24 12:33N 39°41' W 074°04'3 2.9
2016-Aug-24 11:33N 39°43' W 074°06'1 0.9
2016-Aug-24 10:33N 39°44' W 074°07'4 3.9
2016-Aug-24 09:33N 39°41' W 074°03'4 3.8
2016-Aug-24 08:34N 39°44' W 074°06'0 0.2
2016-Aug-24 07:33N 39°44' W 074°07'4 4.1
2016-Aug-24 06:33N 39°41' W 074°03'4 2.0
2016-Aug-24 04:33N 39°44' W 074°07'4 3.8
2016-Aug-24 03:32N 39°41' W 074°04'1 1.4
2016-Aug-24 02:33N 39°42' W 074°05'2 2.5
2016-Aug-24 01:33N 39°44' W 074°07'3 2.7
2016-Aug-24 00:33N 39°41' W 074°05'1 0.7
2016-Aug-23 23:33N 39°41' W 074°04'3 3.1
2016-Aug-23 22:33N 39°44' W 074°07'4 4.1
2016-Aug-23 21:33N 39°40' W 074°03'1 1.2
2016-Aug-23 20:33N 39°40' W 074°05'1 0.3
2016-Aug-23 18:11N 39°40' W 074°06'0 0.0
2016-Aug-23 17:29N 39°40' W 074°06'0 0.0
2016-Aug-23 16:29N 39°40' W 074°06'0 0.1
2016-Aug-23 15:33N 39°40' W 074°06'4 3.7
2016-Aug-23 14:33N 39°43' W 074°07'2 1.6
2016-Aug-23 13:31N 39°42' W 074°06'2 2.0
2016-Aug-23 12:33N 39°41' W 074°04'3 3.5
2016-Aug-23 11:33N 39°44' W 074°06'0 0.4
2016-Aug-23 10:33N 39°44' W 074°07'4 3.7
2016-Aug-23 09:31N 39°41' W 074°03'1 0.9
2016-Aug-23 08:33N 39°40' W 074°04'4 3.9
2016-Aug-23 07:33N 39°44' W 074°07'2 2.0
2016-Aug-23 06:33N 39°43' W 074°04'2 2.0
2016-Aug-23 05:32N 39°41' W 074°03'2 1.9
2016-Aug-23 04:33N 39°42' W 074°05'2 2.1
2016-Aug-23 03:33N 39°44' W 074°07'0 0.0
2016-Aug-23 02:32N 39°44' W 074°07'0 0.0
2016-Aug-23 01:33N 39°44' W 074°07'0 0.0
2016-Aug-23 00:32N 39°44' W 074°07'3 3.4
2016-Aug-22 23:32N 39°41' W 074°04'0 0.4
2016-Aug-22 22:32N 39°41' W 074°04'3 3.5
2016-Aug-22 21:33N 39°44' W 074°07'4 3.9
2016-Aug-22 20:33N 39°41' W 074°03'0 0.2
2016-Aug-22 19:32N 39°41' W 074°03'4 4.2
2016-Aug-22 18:33N 39°44' W 074°07'3 3.2
2016-Aug-22 17:33N 39°41' W 074°04'1 1.1
2016-Aug-22 16:33N 39°41' W 074°03'4 3.8
2016-Aug-22 15:33N 39°44' W 074°07'0 0.0
2016-Aug-22 14:33N 39°44' W 074°07'0 0.0
2016-Aug-22 13:33N 39°44' W 074°07'1 0.8
2016-Aug-22 12:32N 39°43' W 074°06'3 3.3
2016-Aug-22 11:33N 39°41' W 074°03'4 3.8
2016-Aug-22 10:33N 39°44' W 074°07'3 2.6
2016-Aug-22 09:33N 39°41' W 074°05'1 1.3
2016-Aug-22 08:33N 39°41' W 074°03'2 2.2
2016-Aug-22 07:33N 39°43' W 074°05'2 1.7
2016-Aug-22 06:31N 39°44' W 074°07'4 4.0
2016-Aug-22 05:33N 39°40' W 074°04'1 0.5
2016-Aug-22 04:33N 39°41' W 074°03'4 3.8
2016-Aug-22 03:33N 39°44' W 074°07'1 0.7
2016-Aug-22 02:33N 39°44' W 074°06'2 1.9
2016-Aug-22 01:32N 39°42' W 074°05'2 1.8
2016-Aug-22 00:33N 39°41' W 074°03'4 3.8
2016-Aug-21 23:33N 39°44' W 074°07'3 3.2
2016-Aug-21 22:33N 39°41' W 074°04'1 0.6
2016-Aug-21 21:33N 39°41' W 074°04'4 3.6
2016-Aug-21 20:33N 39°44' W 074°07'3 3.0
2016-Aug-21 19:33N 39°41' W 074°05'1 1.2
2016-Aug-21 18:33N 39°41' W 074°03'1 0.8
2016-Aug-21 17:33N 39°41' W 074°04'3 3.3
2016-Aug-21 16:33N 39°44' W 074°07'4 3.7
2016-Aug-21 15:33N 39°41' W 074°04'0 0.4
2016-Aug-21 14:33N 39°41' W 074°04'4 3.6
2016-Aug-21 13:33N 39°44' W 074°07'4 3.9
2016-Aug-21 12:32N 39°41' W 074°03'2 1.6
2016-Aug-21 11:33N 39°42' W 074°05'2 2.4
2016-Aug-21 10:33N 39°44' W 074°07'4 4.0
2016-Aug-21 09:33N 39°41' W 074°03'4 4.0
2016-Aug-21 08:32N 39°44' W 074°07'0 0.1
2016-Aug-21 07:33N 39°44' W 074°07'4 4.0
2016-Aug-21 06:33N 39°41' W 074°03'3 3.0
2016-Aug-21 05:33N 39°43' W 074°05'1 1.1
2016-Aug-21 04:32N 39°44' W 074°07'4 3.4
2016-Aug-21 03:22N 39°41' W 074°03'3 4.3
2016-Aug-21 02:33N 39°43' W 074°06'1 0.6
2016-Aug-21 01:34N 39°44' W 074°07'4 3.9
2016-Aug-21 00:33N 39°41' W 074°03'4 4.0
2016-Aug-20 23:33N 39°44' W 074°07'1 1.5
2016-Aug-20 22:33N 39°42' W 074°06'3 2.5
2016-Aug-20 21:34N 39°41' W 074°03'4 3.8
2016-Aug-20 20:33N 39°44' W 074°07'3 3.0
2016-Aug-20 19:33N 39°41' W 074°04'1 0.7
2016-Aug-20 18:33N 39°41' W 074°03'4 3.6
2016-Aug-20 17:33N 39°44' W 074°07'4 3.5
2016-Aug-20 16:32N 39°41' W 074°04'1 0.8
2016-Aug-20 15:33N 39°41' W 074°03'4 3.8
2016-Aug-20 14:33N 39°44' W 074°07'4 3.9
2016-Aug-20 13:32N 39°41' W 074°03'3 2.8
2016-Aug-20 12:33N 39°43' W 074°06'1 1.3
2016-Aug-20 11:33N 39°44' W 074°07'2 1.9
2016-Aug-20 10:33N 39°43' W 074°05'2 1.9
2016-Aug-20 09:33N 39°41' W 074°03'4 3.7
2016-Aug-20 08:33N 39°44' W 074°07'3 2.7
2016-Aug-20 07:33N 39°41' W 074°05'2 1.5
2016-Aug-20 06:33N 39°41' W 074°03'4 3.9
2016-Aug-20 05:33N 39°44' W 074°07'0 0.4
2016-Aug-20 04:33N 39°44' W 074°06'1 1.3
2016-Aug-20 03:33N 39°43' W 074°05'2 2.1
2016-Aug-20 02:32N 39°41' W 074°03'4 3.9
2016-Aug-20 01:33N 39°44' W 074°07'3 3.3
2016-Aug-20 00:33N 39°41' W 074°04'0 0.0
2016-Aug-19 23:33N 39°41' W 074°04'3 3.3
2016-Aug-19 22:33N 39°44' W 074°07'4 4.0
2016-Aug-19 21:33N 39°40' W 074°04'1 1.0
2016-Aug-19 20:33N 39°42' W 074°04'3 3.3
2016-Aug-19 19:33N 39°44' W 074°07'4 4.1
2016-Aug-19 18:33N 39°40' W 074°04'1 0.8
2016-Aug-19 17:33N 39°41' W 074°03'4 4.0
2016-Aug-19 16:33N 39°44' W 074°07'3 2.7
2016-Aug-19 15:33N 39°42' W 074°05'1 1.5
2016-Aug-19 14:33N 39°41' W 074°03'0 0.3
2016-Aug-19 13:33N 39°41' W 074°03'4 3.7
2016-Aug-19 12:33N 39°43' W 074°07'1 0.6
2016-Aug-19 11:33N 39°43' W 074°06'3 3.1
2016-Aug-19 10:33N 39°41' W 074°03'4 3.8
2016-Aug-19 09:33N 39°43' W 074°07'  
Track history (hours):
 
Tides and Currents Weather Stations Pressure Air Temp Water Temp Dewpoint Dewpoint Depression Visibility Wind Speed Wind Dir Waves Ship Positions

Padre Island

Owner: Great Lakes Dredge & Dock Company, Oak Brook, IL. More information available from US FCC via Universal Licensing System and Coast Guard Vessel Documentation Center.

Last reported at 2016-Aug-29 08:33 UTC. Time now 2016-Aug-29 08:59 UTC.
Position N 39°36' W 074°10'.

Length 86 m; draft 19.6 m.

Type: Dredging. MMSI: 367525000.

Date/timePositionNaut miles runAvg speedWind from/ knotsBaromVisibWave heightAir tempDewpointWater temp
2016-Aug-29 08:33N 39°36' W 074°10'2 2.5
2016-Aug-29 07:33N 39°34' W 074°13'3 3.0
2016-Aug-29 06:33N 39°36' W 074°10'6 6.2
2016-Aug-29 05:33N 39°40' W 074°04'2 2.2
2016-Aug-29 04:34N 39°39' W 074°06'7 7.0
2016-Aug-29 03:33N 39°34' W 074°13'1 0.6
2016-Aug-29 02:33N 39°35' W 074°13'2 1.8
2016-Aug-29 01:34N 39°36' W 074°11'7 6.7
2016-Aug-29 00:33N 39°40' W 074°04'5 4.8
2016-Aug-28 23:33N 39°37' W 074°09'4 4.3
2016-Aug-28 22:34N 39°34' W 074°13'4 4.1
2016-Aug-28 21:33N 39°36' W 074°09'5 5.0
2016-Aug-28 20:33N 39°40' W 074°04'5 5.2
2016-Aug-28 19:34N 39°37' W 074°09'4 3.8
2016-Aug-28 18:33N 39°34' W 074°13'1 1.0
2016-Aug-28 17:32N 39°35' W 074°12'8 8.5
2016-Aug-28 16:34N 39°40' W 074°04'1 0.5
2016-Aug-28 15:33N 39°40' W 074°05'9 8.7
2016-Aug-28 14:33N 39°34' W 074°13'1 0.6
2016-Aug-28 13:33N 39°35' W 074°13'9 8.7
2016-Aug-28 12:34N 39°40' W 074°04'3 3.3
2016-Aug-28 11:33N 39°38' W 074°07'6 6.0
2016-Aug-28 10:34N 39°34' W 074°13'4 3.5
2016-Aug-28 09:33N 39°36' W 074°09'6 5.9
2016-Aug-28 08:34N 39°40' W 074°04'3 2.8
2016-Aug-28 07:33N 39°38' W 074°06'7 6.6
2016-Aug-28 06:33N 39°34' W 074°13'0 0.2
2016-Aug-28 05:33N 39°34' W 074°13'8 8.2
2016-Aug-28 04:34N 39°40' W 074°05'0 0.4
2016-Aug-28 03:34N 39°40' W 074°04'9 8.8
2016-Aug-28 02:33N 39°34' W 074°13'0 0.1
2016-Aug-28 01:33N 39°34' W 074°13'8 7.8
2016-Aug-28 00:34N 39°39' W 074°05'1 0.8
2016-Aug-27 23:34N 39°40' W 074°05'8 8.3
2016-Aug-27 22:33N 39°34' W 074°13'1 0.9
2016-Aug-27 21:34N 39°35' W 074°12'9 8.6
2016-Aug-27 20:34N 39°40' W 074°04'1 0.8
2016-Aug-27 19:34N 39°40' W 074°05'9 8.6
2016-Aug-27 18:33N 39°34' W 074°13'0 0.0
2016-Aug-27 17:32N 39°34' W 074°13'8 8.4
2016-Aug-27 16:34N 39°39' W 074°05'1 0.7
2016-Aug-27 15:33N 39°40' W 074°05'9 8.7
2016-Aug-27 14:33N 39°34' W 074°13'0 0.4
2016-Aug-27 13:33N 39°34' W 074°13'9 9.4
2016-Aug-27 12:33N 39°40' W 074°03'0 0.2
2016-Aug-27 11:34N 39°41' W 074°03'10 9.8
2016-Aug-27 10:34N 39°34' W 074°13'0 0.3
2016-Aug-27 09:34N 39°34' W 074°13'9 8.6
2016-Aug-27 08:34N 39°40' W 074°04'0 0.2
2016-Aug-27 07:33N 39°40' W 074°04'9 8.8
2016-Aug-27 06:33N 39°34' W 074°13'7 3.5
2016-Aug-27 04:33N 39°39' W 074°06'2 2.5
2016-Aug-27 03:33N 39°40' W 074°04'5 5.2
2016-Aug-27 02:33N 39°37' W 074°09'4 4.3
2016-Aug-27 01:33N 39°34' W 074°13'4 4.5
2016-Aug-27 00:33N 39°37' W 074°08'5 5.1
2016-Aug-26 23:34N 39°41' W 074°04'6 5.7
2016-Aug-26 22:33N 39°37' W 074°09'4 3.6
2016-Aug-26 21:29N 39°34' W 074°13'5 4.9
2016-Aug-26 20:34N 39°37' W 074°08'4 4.4
2016-Aug-26 19:33N 39°40' W 074°04'4 4.1
2016-Aug-26 18:34N 39°37' W 074°08'5 4.8
2016-Aug-26 17:33N 39°34' W 074°13'4 3.7
2016-Aug-26 16:33N 39°37' W 074°09'6 6.1
2016-Aug-26 15:33N 39°41' W 074°03'3 2.8
2016-Aug-26 14:33N 39°39' W 074°06'7 7.0
2016-Aug-26 13:33N 39°34' W 074°13'0 0.0
2016-Aug-26 12:33N 39°34' W 074°13'0 0.0
2016-Aug-26 11:33N 39°34' W 074°13'3 2.9
2016-Aug-26 10:32N 39°36' W 074°10'7 6.9
2016-Aug-26 09:33N 39°41' W 074°03'2 1.9
2016-Aug-26 08:33N 39°39' W 074°05'8 7.4
2016-Aug-26 07:30N 39°34' W 074°13'0 0.5
2016-Aug-26 06:34N 39°35' W 074°12'9 4.2
2016-Aug-26 04:32N 39°40' W 074°04'9 8.9
2016-Aug-26 03:33N 39°34' W 074°13'0 0.2
2016-Aug-26 02:33N 39°34' W 074°13'8 8.2
2016-Aug-26 01:32N 39°40' W 074°05'1 1.5
2016-Aug-26 00:33N 39°41' W 074°03'9 8.9
2016-Aug-25 23:33N 39°50' W 074°02'30 8.9
2016-Aug-25 20:11N 40°19' W 073°55'6 9.1
2016-Aug-25 19:31N 40°25' W 073°55'9 1.3
2016-Aug-25 12:09N 40°29' W 074°07'4 1.6
2016-Aug-25 09:33N 40°29' W 074°01'29 9.3
2016-Aug-25 06:28N 40°00' W 073°59'2010.6
2016-Aug-25 04:33N 39°40' W 074°06'8 8.2
2016-Aug-25 03:33N 39°34' W 074°13'2 1.7
2016-Aug-25 02:33N 39°35' W 074°11'8 7.9
2016-Aug-25 01:33N 39°41' W 074°04'1 1.0
2016-Aug-25 00:33N 39°40' W 074°04'9 8.4
2016-Aug-24 23:31N 39°34' W 074°13'0 0.0
2016-Aug-24 22:33N 39°34' W 074°13'0 0.0
2016-Aug-24 21:33N 39°34' W 074°13'0 0.0
2016-Aug-24 20:33N 39°34' W 074°13'0 0.0
2016-Aug-24 19:32N 39°34' W 074°13'0 0.5
2016-Aug-24 18:33N 39°35' W 074°13'0 0.3
2016-Aug-24 17:32N 39°34' W 074°13'6 5.6
2016-Aug-24 16:33N 39°38' W 074°07'4 3.8
2016-Aug-24 15:33N 39°41' W 074°04'4 3.7
2016-Aug-24 14:33N 39°44' W 074°07'0 0.2
2016-Aug-24 13:33N 39°44' W 074°07'4 3.8
2016-Aug-24 12:33N 39°41' W 074°04'3 2.9
2016-Aug-24 11:33N 39°43' W 074°06'1 0.9
2016-Aug-24 10:33N 39°44' W 074°07'4 3.9
2016-Aug-24 09:33N 39°41' W 074°03'4 3.8
2016-Aug-24 08:34N 39°44' W 074°06'0 0.2
2016-Aug-24 07:33N 39°44' W 074°07'4 4.1
2016-Aug-24 06:33N 39°41' W 074°03'4 2.0
2016-Aug-24 04:33N 39°44' W 074°07'4 3.8
2016-Aug-24 03:32N 39°41' W 074°04'1 1.4
2016-Aug-24 02:33N 39°42' W 074°05'2 2.5
2016-Aug-24 01:33N 39°44' W 074°07'3 2.7
2016-Aug-24 00:33N 39°41' W 074°05'1 0.7
2016-Aug-23 23:33N 39°41' W 074°04'3 3.1
2016-Aug-23 22:33N 39°44' W 074°07'4 4.1
2016-Aug-23 21:33N 39°40' W 074°03'1 1.2
2016-Aug-23 20:33N 39°40' W 074°05'1 0.3
2016-Aug-23 18:11N 39°40' W 074°06'0 0.0
2016-Aug-23 17:29N 39°40' W 074°06'0 0.0
2016-Aug-23 16:29N 39°40' W 074°06'0 0.1
2016-Aug-23 15:33N 39°40' W 074°06'4 3.7
2016-Aug-23 14:33N 39°43' W 074°07'2 1.6
2016-Aug-23 13:31N 39°42' W 074°06'2 2.0
2016-Aug-23 12:33N 39°41' W 074°04'3 3.5
2016-Aug-23 11:33N 39°44' W 074°06'0 0.4
2016-Aug-23 10:33N 39°44' W 074°07'4 3.7
2016-Aug-23 09:31N 39°41' W 074°03'1 0.9
2016-Aug-23 08:33N 39°40' W 074°04'4 3.9
2016-Aug-23 07:33N 39°44' W 074°07'2 2.0
2016-Aug-23 06:33N 39°43' W 074°04'2 2.0
2016-Aug-23 05:32N 39°41' W 074°03'2 1.9
2016-Aug-23 04:33N 39°42' W 074°05'2 2.1
2016-Aug-23 03:33N 39°44' W 074°07'0 0.0
2016-Aug-23 02:32N 39°44' W 074°07'0 0.0
2016-Aug-23 01:33N 39°44' W 074°07'0 0.0
2016-Aug-23 00:32N 39°44' W 074°07'3 3.4
2016-Aug-22 23:32N 39°41' W 074°04'0 0.4
2016-Aug-22 22:32N 39°41' W 074°04'3 3.5
2016-Aug-22 21:33N 39°44' W 074°07'4 3.9
2016-Aug-22 20:33N 39°41' W 074°03'0 0.2
2016-Aug-22 19:32N 39°41' W 074°03'4 4.2
2016-Aug-22 18:33N 39°44' W 074°07'3 3.2
2016-Aug-22 17:33N 39°41' W 074°04'1 1.1
2016-Aug-22 16:33N 39°41' W 074°03'4 3.8
2016-Aug-22 15:33N 39°44' W 074°07'0 0.0
2016-Aug-22 14:33N 39°44' W 074°07'0 0.0
2016-Aug-22 13:33N 39°44' W 074°07'1 0.8
2016-Aug-22 12:32N 39°43' W 074°06'3 3.3
2016-Aug-22 11:33N 39°41' W 074°03'4 3.8
2016-Aug-22 10:33N 39°44' W 074°07'3 2.6
2016-Aug-22 09:33N 39°41' W 074°05'1 1.3
2016-Aug-22 08:33N 39°41' W 074°03'2 2.2
2016-Aug-22 07:33N 39°43' W 074°05'2 1.7
2016-Aug-22 06:31N 39°44' W 074°07'4 4.0
2016-Aug-22 05:33N 39°40' W 074°04'1 0.5
2016-Aug-22 04:33N 39°41' W 074°03'4 3.8
2016-Aug-22 03:33N 39°44' W 074°07'1 0.7
2016-Aug-22 02:33N 39°44' W 074°06'2 1.9
2016-Aug-22 01:32N 39°42' W 074°05'2 1.8
2016-Aug-22 00:33N 39°41' W 074°03'4 3.8
2016-Aug-21 23:33N 39°44' W 074°07'3 3.2
2016-Aug-21 22:33N 39°41' W 074°04'1 0.6
2016-Aug-21 21:33N 39°41' W 074°04'4 3.6
2016-Aug-21 20:33N 39°44' W 074°07'3 3.0
2016-Aug-21 19:33N 39°41' W 074°05'1 1.2
2016-Aug-21 18:33N 39°41' W 074°03'1 0.8
2016-Aug-21 17:33N 39°41' W 074°04'3 3.3
2016-Aug-21 16:33N 39°44' W 074°07'4 3.7
2016-Aug-21 15:33N 39°41' W 074°04'0 0.4
2016-Aug-21 14:33N 39°41' W 074°04'4 3.6
2016-Aug-21 13:33N 39°44' W 074°07'4 3.9
2016-Aug-21 12:32N 39°41' W 074°03'2 1.6
2016-Aug-21 11:33N 39°42' W 074°05'2 2.4
2016-Aug-21 10:33N 39°44' W 074°07'4 4.0
2016-Aug-21 09:33N 39°41' W 074°03'4 4.0
2016-Aug-21 08:32N 39°44' W 074°07'0 0.1
2016-Aug-21 07:33N 39°44' W 074°07'4 4.0
2016-Aug-21 06:33N 39°41' W 074°03'3 3.0
2016-Aug-21 05:33N 39°43' W 074°05'1 1.1
2016-Aug-21 04:32N 39°44' W 074°07'4 3.4
2016-Aug-21 03:22N 39°41' W 074°03'3 4.3
2016-Aug-21 02:33N 39°43' W 074°06'1 0.6
2016-Aug-21 01:34N 39°44' W 074°07'4 3.9
2016-Aug-21 00:33N 39°41' W 074°03'4 4.0
2016-Aug-20 23:33N 39°44' W 074°07'1 1.5
2016-Aug-20 22:33N 39°42' W 074°06'3 2.5
2016-Aug-20 21:34N 39°41' W 074°03'4 3.8
2016-Aug-20 20:33N 39°44' W 074°07'3 3.0
2016-Aug-20 19:33N 39°41' W 074°04'1 0.7
2016-Aug-20 18:33N 39°41' W 074°03'4 3.6
2016-Aug-20 17:33N 39°44' W 074°07'4 3.5
2016-Aug-20 16:32N 39°41' W 074°04'1 0.8
2016-Aug-20 15:33N 39°41' W 074°03'4 3.8
2016-Aug-20 14:33N 39°44' W 074°07'4 3.9
2016-Aug-20 13:32N 39°41' W 074°03'3 2.8
2016-Aug-20 12:33N 39°43' W 074°06'1 1.3
2016-Aug-20 11:33N 39°44' W 074°07'2 1.9
2016-Aug-20 10:33N 39°43' W 074°05'2 1.9
2016-Aug-20 09:33N 39°41' W 074°03'4 3.7
2016-Aug-20 08:33N 39°44' W 074°07'3 2.7
2016-Aug-20 07:33N 39°41' W 074°05'2 1.5
2016-Aug-20 06:33N 39°41' W 074°03'4 3.9
2016-Aug-20 05:33N 39°44' W 074°07'0 0.4
2016-Aug-20 04:33N 39°44' W 074°06'1 1.3
2016-Aug-20 03:33N 39°43' W 074°05'2 2.1
2016-Aug-20 02:32N 39°41' W 074°03'4 3.9
2016-Aug-20 01:33N 39°44' W 074°07'3 3.3
2016-Aug-20 00:33N 39°41' W 074°04'0 0.0
2016-Aug-19 23:33N 39°41' W 074°04'3 3.3
2016-Aug-19 22:33N 39°44' W 074°07'4 4.0
2016-Aug-19 21:33N 39°40' W 074°04'1 1.0
2016-Aug-19 20:33N 39°42' W 074°04'3 3.3
2016-Aug-19 19:33N 39°44' W 074°07'4 4.1
2016-Aug-19 18:33N 39°40' W 074°04'1 0.8
2016-Aug-19 17:33N 39°41' W 074°03'4 4.0
2016-Aug-19 16:33N 39°44' W 074°07'3 2.7
2016-Aug-19 15:33N 39°42' W 074°05'1 1.5
2016-Aug-19 14:33N 39°41' W 074°03'0 0.3
2016-Aug-19 13:33N 39°41' W 074°03'4 3.7
2016-Aug-19 12:33N 39°43' W 074°07'1 0.6
2016-Aug-19 11:33N 39°43' W 074°06'3 3.1
2016-Aug-19 10:33N 39°41' W 074°03'4 3.8
2016-Aug-19 09:33N 39°43' W 074°07'  

Dump ship's entire track history